Time;durP1;ratioP1;P1;durP2;ratioP2;P2;SDS_P1;SDS_P2;PMS_P1;PMS_P2;Temp;Humidity;BMP_temperature;BMP_pressure;BME280_temperature;BME280_humidity;BME280_pressure;Samples;Min_cycle;Max_cycle;Signal;HPM_P1;HPM_P2
2023/04/22 00:01:18;;;;;;;21.73;19.52;;;;;;;14.28;44.12;100156.22;5007354;28;100399;-77
2023/04/22 00:03:44;;;;;;;22.25;19.77;;;;;;;14.36;44.09;100169.91;5012200;28;98074;-77
2023/04/22 00:06:10;;;;;;;22.90;20.50;;;;;;;14.33;44.09;100161.28;5012860;28;101408;-76
2023/04/22 00:08:35;;;;;;;21.08;19.08;;;;;;;14.34;44.07;100158.59;5012703;28;97197;-78
2023/04/22 00:11:02;;;;;;;23.35;20.77;;;;;;;14.30;43.59;100164.94;5030162;28;97681;-76
2023/04/22 00:13:28;;;;;;;23.17;20.00;;;;;;;14.30;43.53;100166.72;5028527;27;102113;-77
2023/04/22 00:15:53;;;;;;;24.10;20.00;;;;;;;14.24;43.55;100173.19;5012005;27;101244;-77
2023/04/22 00:18:19;;;;;;;23.73;20.10;;;;;;;14.17;44.07;100166.53;5012878;27;97560;-76
2023/04/22 00:20:45;;;;;;;26.17;20.38;;;;;;;14.17;44.50;100162.09;5010894;28;97056;-76
2023/04/22 00:23:11;;;;;;;23.23;19.20;;;;;;;13.99;44.96;100145.41;5008226;28;101212;-76
2023/04/22 00:25:38;;;;;;;22.90;20.15;;;;;;;13.96;45.34;100148.22;4994968;28;101303;-77
2023/04/22 00:28:04;;;;;;;25.88;20.40;;;;;;;13.98;45.58;100162.16;5011997;28;97456;-76
2023/04/22 00:30:29;;;;;;;22.13;19.67;;;;;;;13.87;46.05;100148.66;5009901;28;96903;-76
2023/04/22 00:32:55;;;;;;;23.83;20.45;;;;;;;13.85;45.61;100161.09;5011272;28;100656;-76
2023/04/22 00:35:21;;;;;;;26.98;20.83;;;;;;;13.78;45.97;100162.31;5009473;27;101197;-77
2023/04/22 00:37:46;;;;;;;33.95;20.67;;;;;;;13.79;46.24;100164.88;5024401;27;97734;-76
2023/04/22 00:40:12;;;;;;;27.92;19.90;;;;;;;13.80;46.45;100168.38;5007076;28;97317;-76
2023/04/22 00:42:38;;;;;;;20.98;18.67;;;;;;;13.69;46.56;100147.78;5027422;28;101854;-77
2023/04/22 00:45:09;;;;;;;20.58;18.00;;;;;;;13.75;46.31;100173.84;5008010;28;102220;-76
2023/04/22 00:47:35;;;;;;;22.17;19.83;;;;;;;13.65;46.56;100167.34;5009020;28;97441;-76
2023/04/22 00:50:02;;;;;;;26.02;19.15;;;;;;;13.64;46.50;100164.78;5036564;27;97985;-76
2023/04/22 00:52:27;;;;;;;25.52;20.25;;;;;;;13.55;46.85;100172.19;4995205;28;101193;-77
2023/04/22 00:54:53;;;;;;;26.75;20.35;;;;;;;13.46;46.74;100158.63;5039919;27;101393;-76
2023/04/22 00:57:19;;;;;;;23.85;20.65;;;;;;;13.42;47.20;100165.81;5028575;28;97345;-77
2023/04/22 00:59:45;;;;;;;21.85;18.95;;;;;;;13.41;47.44;100165.88;5040805;27;96888;-77
2023/04/22 01:02:11;;;;;;;25.48;20.60;;;;;;;13.34;47.40;100167.97;5022296;28;101242;-77
2023/04/22 01:04:37;;;;;;;24.20;19.55;;;;;;;13.39;47.46;100170.41;4995655;28;101447;-77
2023/04/22 01:07:02;;;;;;;22.33;19.85;;;;;;;13.30;47.64;100163.78;5003884;28;97335;-77
2023/04/22 01:09:28;;;;;;;22.83;19.15;;;;;;;13.36;47.43;100176.66;5029602;27;96904;-76
2023/04/22 01:11:55;;;;;;;24.00;18.35;;;;;;;13.19;47.94;100166.88;5026170;27;97999;-76
2023/04/22 01:14:21;;;;;;;23.40;19.63;;;;;;;13.19;47.90;100166.03;5012841;27;101698;-76
2023/04/22 01:16:47;;;;;;;29.13;20.38;;;;;;;13.24;48.28;100174.59;5012626;28;97274;-77
2023/04/22 01:19:12;;;;;;;24.23;20.08;;;;;;;13.09;48.44;100157.72;5012300;28;97252;-76
2023/04/22 01:21:39;;;;;;;27.77;20.55;;;;;;;13.12;48.73;100176.88;5020219;27;101389;-77
2023/04/22 01:24:06;;;;;;;24.05;20.67;;;;;;;13.11;48.52;100166.38;5008282;28;98321;-77
2023/04/22 01:26:31;;;;;;;24.23;20.27;;;;;;;12.95;48.59;100149.59;4995020;28;97109;-77
2023/04/22 01:28:57;;;;;;;41.88;22.02;;;;;;;13.00;48.67;100174.81;4994386;28;97190;-76
2023/04/22 01:31:23;;;;;;;24.38;19.67;;;;;;;13.01;48.77;100171.25;5011023;28;101244;-76
2023/04/22 01:33:49;;;;;;;25.02;22.25;;;;;;;12.95;48.86;100157.50;5007890;28;100509;-76
2023/04/22 01:36:16;;;;;;;26.48;21.33;;;;;;;12.98;49.02;100167.91;5012457;28;98243;-76
2023/04/22 01:38:41;;;;;;;23.42;20.95;;;;;;;12.88;48.84;100168.31;5005992;28;98088;-76
2023/04/22 01:41:07;;;;;;;22.83;19.85;;;;;;;12.81;48.81;100156.34;4995263;28;101246;-77
2023/04/22 01:43:33;;;;;;;25.50;19.75;;;;;;;12.77;48.86;100151.28;5011226;28;97782;-77
2023/04/22 01:46:03;;;;;;;24.95;20.23;;;;;;;12.77;49.22;100162.69;4995015;28;97373;-77
2023/04/22 01:48:29;;;;;;;25.45;19.38;;;;;;;12.77;48.96;100162.69;5028956;27;97111;-77
2023/04/22 01:50:55;;;;;;;26.85;20.02;;;;;;;12.58;49.76;100141.59;4994822;28;101531;-77
2023/04/22 01:53:20;;;;;;;31.83;20.27;;;;;;;12.72;49.32;100161.19;4994490;28;101673;-77
2023/04/22 01:55:46;;;;;;;29.10;21.27;;;;;;;12.71;49.94;100157.69;5036156;27;100114;-77
2023/04/22 01:58:12;;;;;;;24.60;19.95;;;;;;;12.71;49.69;100155.03;5027944;27;97361;-77
2023/04/22 02:00:38;;;;;;;29.42;20.80;;;;;;;12.66;50.01;100159.69;5056914;27;98141;-77
2023/04/22 02:03:04;;;;;;;27.63;21.70;;;;;;;12.61;49.95;100151.13;5032775;27;101284;-77
2023/04/22 02:05:30;;;;;;;24.80;20.35;;;;;;;12.61;50.03;100146.72;5010529;28;96782;-78
2023/04/22 02:07:55;;;;;;;28.02;21.30;;;;;;;12.56;50.11;100143.44;5016005;28;97020;-77
2023/04/22 02:10:21;;;;;;;22.67;20.02;;;;;;;12.56;50.06;100146.06;5024183;28;101771;-77
2023/04/22 02:12:46;;;;;;;31.77;21.30;;;;;;;12.54;50.61;100145.28;5018973;27;101715;-78
2023/04/22 02:15:13;;;;;;;28.65;21.77;;;;;;;12.52;50.25;100146.28;5022613;28;97314;-78
2023/04/22 02:17:41;;;;;;;31.75;22.35;;;;;;;12.44;50.88;100141.34;5010706;28;97024;-76
2023/04/22 02:20:07;;;;;;;26.60;20.05;;;;;;;12.47;50.60;100141.22;4994047;28;101747;-76
2023/04/22 02:22:33;;;;;;;26.20;21.10;;;;;;;12.48;50.51;100139.44;4993449;28;101004;-77
2023/04/22 02:24:58;;;;;;;24.02;20.67;;;;;;;12.37;50.79;100132.88;5010056;28;97370;-77
2023/04/22 02:27:24;;;;;;;30.35;21.08;;;;;;;12.36;51.18;100135.56;5009554;28;97392;-76
2023/04/22 02:29:50;;;;;;;26.40;21.38;;;;;;;12.30;50.96;100139.31;5034520;27;98265;-77
2023/04/22 02:32:16;;;;;;;34.42;20.48;;;;;;;12.29;50.99;100139.41;5028340;27;97866;-78
2023/04/22 02:34:42;;;;;;;31.88;20.55;;;;;;;12.27;51.18;100128.94;5023356;27;97114;-76
2023/04/22 02:37:07;;;;;;;28.55;20.80;;;;;;;12.24;51.52;100132.53;5011075;28;96941;-77
2023/04/22 02:39:33;;;;;;;35.08;22.08;;;;;;;12.18;51.19;100137.22;5008687;28;101729;-77
2023/04/22 02:42:00;;;;;;;29.60;21.75;;;;;;;12.19;51.66;100128.44;5019915;28;101589;-77
2023/04/22 02:44:26;;;;;;;30.90;21.80;;;;;;;12.17;51.30;100125.84;5030922;27;98142;-77
2023/04/22 02:46:51;;;;;;;22.90;20.52;;;;;;;12.17;51.45;100123.22;5031329;27;97228;-77
2023/04/22 02:49:17;;;;;;;31.42;21.75;;;;;;;12.06;51.80;100130.72;5026211;27;97972;-78
2023/04/22 02:51:43;;;;;;;28.75;21.42;;;;;;;12.03;52.10;100128.22;5014428;28;101694;-77
2023/04/22 02:54:08;;;;;;;27.40;21.13;;;;;;;12.02;52.27;100126.53;5010894;28;96776;-77
2023/04/22 02:56:34;;;;;;;23.85;21.25;;;;;;;11.90;51.76;100104.25;5014404;28;97115;-76
2023/04/22 02:59:00;;;;;;;27.85;22.20;;;;;;;12.02;52.29;100121.28;5030210;28;98521;-77
2023/04/22 03:01:25;;;;;;;28.02;21.52;;;;;;;12.01;52.27;100122.16;5030823;28;101574;-78
2023/04/22 03:03:53;;;;;;;25.10;21.58;;;;;;;11.98;52.35;100130.19;5043815;27;96764;-77
2023/04/22 03:06:21;;;;;;;27.73;21.58;;;;;;;11.94;52.30;100129.47;5007923;28;97367;-76
2023/04/22 03:08:47;;;;;;;24.02;21.42;;;;;;;11.91;52.40;100121.72;5012492;28;101699;-77
2023/04/22 03:11:13;;;;;;;30.70;20.92;;;;;;;11.77;52.61;100108.25;5027389;28;101177;-77
2023/04/22 03:13:38;;;;;;;23.60;21.08;;;;;;;11.83;52.50;100123.78;5028200;28;96741;-77
2023/04/22 03:16:04;;;;;;;31.02;22.63;;;;;;;11.84;52.60;100122.88;5027023;28;96945;-77
2023/04/22 03:18:31;;;;;;;32.08;23.08;;;;;;;11.82;52.61;100121.22;5013287;28;101526;-77
2023/04/22 03:20:57;;;;;;;31.75;22.40;;;;;;;11.79;52.77;100130.94;4994174;27;101224;-78
2023/04/22 03:23:22;;;;;;;28.17;21.85;;;;;;;11.73;52.67;100111.97;4998801;28;97693;-78
2023/04/22 03:25:49;;;;;;;30.67;23.00;;;;;;;11.64;52.78;100105.31;5010386;28;96871;-77
2023/04/22 03:28:14;;;;;;;27.73;22.30;;;;;;;11.60;52.77;100103.72;5026434;28;101350;-77
2023/04/22 03:30:40;;;;;;;30.88;23.25;;;;;;;11.67;53.32;100110.44;5025520;27;101397;-77
2023/04/22 03:33:06;;;;;;;29.65;23.23;;;;;;;11.70;53.33;100112.09;5024792;28;96762;-77
2023/04/22 03:35:42;;;;;;;30.33;22.15;;;;;;;11.61;53.81;100115.09;5012514;28;97651;-77
2023/04/22 03:38:10;;;;;;;32.88;23.48;;;;;;;11.61;53.40;100118.59;5034266;27;101545;-77
2023/04/22 03:40:36;;;;;;;26.85;22.20;;;;;;;11.57;53.40;100117.81;5013820;28;101070;-77
2023/04/22 03:43:10;;;;;;;34.63;23.50;;;;;;;11.55;53.25;100118.84;5012286;28;96836;-77
2023/04/22 03:45:36;;;;;;;28.00;22.02;;;;;;;11.60;53.32;100116.00;5013360;28;97011;-77
2023/04/22 03:48:15;;;;;;;28.73;20.75;;;;;;;11.47;53.27;100102.53;4999919;28;101949;-76
2023/04/22 03:50:46;;;;;;;29.83;21.63;;;;;;;11.47;53.51;100102.53;5011754;28;100917;-76
2023/04/22 03:53:11;;;;;;;28.30;23.08;;;;;;;11.47;53.37;100111.25;5026527;27;97120;-78
2023/04/22 03:55:38;;;;;;;26.67;21.75;;;;;;;11.46;53.42;100100.78;4989539;28;97710;-77
2023/04/22 03:58:04;;;;;;;26.88;21.20;;;;;;;11.53;53.70;100121.53;5011964;28;101240;-77
2023/04/22 04:00:29;;;;;;;34.60;23.27;;;;;;;11.52;54.16;100106.69;5013824;28;101135;-77
2023/04/22 04:03:06;;;;;;;30.98;21.67;;;;;;;11.54;53.83;100112.69;5013945;28;98188;-77
2023/04/22 04:05:31;;;;;;;32.47;22.52;;;;;;;11.52;54.08;100108.47;5013515;28;97013;-78
2023/04/22 04:07:57;;;;;;;27.80;21.65;;;;;;;11.47;53.94;100113.88;5048082;27;97960;-77
2023/04/22 04:10:24;;;;;;;32.72;23.02;;;;;;;11.49;54.08;100108.56;4999516;27;101238;-77
2023/04/22 04:12:51;;;;;;;29.27;21.10;;;;;;;11.36;54.21;100097.69;5038678;27;97103;-76
2023/04/22 04:15:20;;;;;;;35.40;22.27;;;;;;;11.42;54.34;100112.38;5026860;28;96900;-77
2023/04/22 04:17:47;;;;;;;29.65;21.35;;;;;;;11.30;54.04;100084.81;5025943;27;101147;-76
2023/04/22 04:20:14;;;;;;;29.63;23.30;;;;;;;11.51;54.22;100109.34;5006446;28;101502;-77
2023/04/22 04:22:41;;;;;;;43.28;22.73;;;;;;;11.49;54.55;100106.81;5008099;28;97049;-76
2023/04/22 04:25:08;;;;;;;33.35;23.58;;;;;;;11.52;54.42;100101.41;5010183;28;97378;-77
2023/04/22 04:27:38;;;;;;;38.20;24.48;;;;;;;11.55;54.29;100108.31;5035671;27;100717;-77
2023/04/22 04:30:05;;;;;;;38.45;24.15;;;;;;;11.29;53.98;100060.31;5011016;28;101775;-77
2023/04/22 04:32:39;;;;;;;40.15;25.52;;;;;;;11.65;53.59;100096.50;4996902;28;97051;-77
2023/04/22 04:35:08;;;;;;;41.90;25.40;;;;;;;11.74;53.88;100104.00;5013037;28;97410;-77
2023/04/22 04:37:33;;;;;;;45.42;22.60;;;;;;;11.72;53.28;100100.59;5010665;28;101373;-76
2023/04/22 04:40:06;;;;;;;47.40;22.47;;;;;;;11.91;53.24;100115.63;5005086;28;100076;-77
2023/04/22 04:42:42;;;;;;;32.92;23.73;;;;;;;11.98;52.48;100117.94;5013383;28;97585;-77
2023/04/22 04:45:15;;;;;;;30.77;26.23;;;;;;;12.09;52.30;100121.84;5006480;28;98112;-77
2023/04/22 04:47:41;;;;;;;28.85;24.20;;;;;;;12.16;51.89;100118.03;4995097;28;99808;-77
2023/04/22 04:50:19;;;;;;;31.83;22.98;;;;;;;12.29;52.04;100110.47;5000967;28;101521;-76
2023/04/22 04:52:47;;;;;;;38.38;23.92;;;;;;;12.49;52.14;100131.47;5028086;27;97367;-77
2023/04/22 04:55:15;;;;;;;28.98;22.67;;;;;;;12.55;51.70;100131.19;5027109;27;96980;-77
2023/04/22 04:57:41;;;;;;;30.25;24.00;;;;;;;12.65;50.91;100126.34;5011188;28;101442;-76
2023/04/22 05:00:07;;;;;;;30.42;23.95;;;;;;;12.84;50.01;100121.13;5011377;28;101287;-77
2023/04/22 05:02:34;;;;;;;27.95;23.67;;;;;;;13.05;50.26;100125.38;4988557;27;100528;-77
2023/04/22 05:04:59;;;;;;;30.88;23.80;;;;;;;13.18;49.93;100123.03;5011391;28;97148;-77
2023/04/22 05:07:26;;;;;;;30.02;23.95;;;;;;;13.38;49.88;100123.84;5010882;28;101370;-76
2023/04/22 05:09:52;;;;;;;30.10;24.45;;;;;;;13.53;49.16;100137.16;5027363;28;101687;-78
2023/04/22 05:12:18;;;;;;;29.95;23.35;;;;;;;13.60;48.87;100140.34;4990772;28;97218;-77
2023/04/22 05:14:45;;;;;;;29.30;24.58;;;;;;;13.69;48.80;100121.41;5011861;28;97308;-77
2023/04/22 05:17:12;;;;;;;31.00;24.33;;;;;;;13.82;48.09;100126.94;5009587;28;101110;-78
2023/04/22 05:19:37;;;;;;;28.85;21.88;;;;;;;13.85;47.53;100123.31;5005374;27;101281;-79
2023/04/22 05:22:03;;;;;;;25.17;22.58;;;;;;;14.00;47.87;100122.50;5045119;27;97242;-77
2023/04/22 05:24:29;;;;;;;27.88;23.42;;;;;;;14.16;47.21;100127.84;5010944;28;97255;-79
2023/04/22 05:26:57;;;;;;;26.60;22.02;;;;;;;14.06;46.68;100123.97;4994557;28;101884;-79
2023/04/22 05:29:22;;;;;;;25.30;22.38;;;;;;;14.22;46.44;100138.06;5011760;28;100609;-78
2023/04/22 05:31:48;;;;;;;24.02;21.05;;;;;;;14.30;46.43;100135.03;5011259;28;97416;-80
2023/04/22 05:34:14;;;;;;;22.52;20.30;;;;;;;14.28;46.40;100135.13;5009223;28;97358;-77
2023/04/22 05:36:39;;;;;;;24.95;21.20;;;;;;;14.39;46.41;100127.47;5008771;28;101193;-77
2023/04/22 05:39:06;;;;;;;23.00;20.58;;;;;;;14.41;46.02;100135.34;5019845;27;101731;-78
2023/04/22 05:41:33;;;;;;;23.88;21.35;;;;;;;14.58;45.63;100122.13;5007807;28;97437;-78
2023/04/22 05:43:59;;;;;;;22.67;20.40;;;;;;;14.57;45.11;100119.56;5009468;28;97059;-78
2023/04/22 05:46:25;;;;;;;23.95;20.27;;;;;;;14.89;45.80;100141.59;5009925;28;101831;-78
2023/04/22 05:48:51;;;;;;;22.58;20.25;;;;;;;14.96;44.68;100134.19;5026955;27;100756;-78
2023/04/22 05:51:36;;;;;;;23.90;21.40;;;;;;;14.90;44.76;100125.66;5011910;27;96852;-77
2023/04/22 05:54:02;;;;;;;23.50;21.02;;;;;;;15.02;44.45;100123.28;5009604;28;97301;-77
2023/04/22 05:56:28;;;;;;;23.75;21.05;;;;;;;15.35;44.44;100125.81;5003095;28;98600;-79
2023/04/22 05:58:54;;;;;;;23.77;21.38;;;;;;;15.48;43.32;100118.03;5009881;28;101230;-79
2023/04/22 06:01:23;;;;;;;23.98;21.33;;;;;;;15.47;43.41;100119.81;5003216;28;97354;-79
2023/04/22 06:04:05;;;;;;;23.40;20.30;;;;;;;15.74;43.19;100121.84;5008659;28;98685;-80
2023/04/22 06:06:31;;;;;;;21.98;19.60;;;;;;;16.02;43.29;100126.34;5010507;27;101257;-80
2023/04/22 06:08:57;;;;;;;21.38;19.25;;;;;;;16.05;42.29;100115.56;4994965;27;102415;-80
2023/04/22 06:11:22;;;;;;;23.42;20.95;;;;;;;16.16;42.01;100107.84;5012763;27;97452;-79
2023/04/22 06:13:48;;;;;;;22.38;20.00;;;;;;;16.51;42.78;100137.47;5035357;27;96940;-82
2023/04/22 06:16:14;;;;;;;23.67;21.20;;;;;;;16.45;41.59;100137.84;5027799;27;101568;-80
2023/04/22 06:18:42;;;;;;;22.33;20.08;;;;;;;16.78;41.28;100131.44;5013734;27;97681;-81
2023/04/22 06:21:10;;;;;;;23.88;20.85;;;;;;;17.04;40.83;100129.78;5010843;28;97600;-81
2023/04/22 06:23:36;;;;;;;22.10;19.90;;;;;;;17.06;40.85;100119.09;5007988;28;96974;-80
2023/04/22 06:26:02;;;;;;;22.25;20.10;;;;;;;17.43;40.69;100131.66;5009622;28;101962;-80
2023/04/22 06:28:28;;;;;;;24.00;21.65;;;;;;;17.71;40.02;100132.47;4997179;28;101732;-80
2023/04/22 06:30:57;;;;;;;22.98;20.83;;;;;;;17.97;39.43;100128.09;4986505;28;98325;-81
2023/04/22 06:33:23;;;;;;;23.70;21.23;;;;;;;18.23;39.14;100112.19;5004037;27;97304;-80
2023/04/22 06:35:49;;;;;;;22.65;20.17;;;;;;;18.75;39.10;100130.69;5012974;28;101555;-80
2023/04/22 06:38:15;;;;;;;21.92;19.70;;;;;;;19.13;38.21;100121.75;5028502;28;100473;-81
2023/04/22 06:41:03;;;;;;;23.17;20.63;;;;;;;19.28;37.36;100106.47;4994162;28;97379;-81
2023/04/22 06:43:34;;;;;;;22.45;20.13;;;;;;;19.72;36.96;100131.63;5010351;28;96887;-78
2023/04/22 06:46:12;;;;;;;24.65;20.70;;;;;;;19.92;36.02;100118.63;5009255;27;97970;-79
2023/04/22 06:48:57;;;;;;;22.17;19.48;;;;;;;20.17;35.67;100122.94;5025590;27;100132;-80
2023/04/22 06:51:55;;;;;;;22.92;20.15;;;;;;;20.39;35.62;100119.44;5016226;27;97050;-81
2023/04/22 06:54:20;;;;;;;20.20;16.63;;;;;;;20.81;35.13;100125.91;4995849;28;97053;-82
2023/04/22 06:56:46;;;;;;;20.15;18.35;;;;;;;21.11;34.58;100124.41;5009606;28;101607;-82
2023/04/22 06:59:12;;;;;;;20.67;18.90;;;;;;;21.37;34.11;100125.81;5011710;28;101232;-81
2023/04/22 07:01:37;;;;;;;22.77;20.40;;;;;;;21.74;33.36;100120.13;5012270;28;97277;-81
2023/04/22 07:04:03;;;;;;;20.80;18.60;;;;;;;21.99;32.28;100110.88;5007637;28;97022;-83
2023/04/22 07:06:28;;;;;;;21.48;19.38;;;;;;;22.50;31.93;100120.75;4996449;28;100172;-79
2023/04/22 07:08:54;;;;;;;22.27;20.08;;;;;;;22.58;31.11;100120.94;5010353;28;101399;-78
2023/04/22 07:11:20;;;;;;;23.02;20.85;;;;;;;22.83;31.59;100125.00;5014006;28;96686;-80
2023/04/22 07:13:58;;;;;;;22.05;19.83;;;;;;;23.09;31.20;100115.63;5000354;28;97406;-78
2023/04/22 07:16:25;;;;;;;20.35;18.75;;;;;;;23.17;31.28;100113.13;5012451;28;97628;-81
2023/04/22 07:18:51;;;;;;;22.23;19.83;;;;;;;23.49;31.41;100112.88;5014247;28;101408;-84
2023/04/22 07:21:16;;;;;;;20.95;19.05;;;;;;;23.69;31.43;100113.72;5016401;27;96982;-88
2023/04/22 07:23:42;;;;;;;23.08;20.63;;;;;;;23.92;31.44;100101.75;5008344;28;98101;-90
2023/04/22 07:26:07;;;;;;;21.63;19.67;;;;;;;24.00;30.54;100100.16;5027048;28;98633;-87
2023/04/22 07:28:33;;;;;;;22.30;20.10;;;;;;;24.27;30.50;100091.38;5003997;28;98244;-84
2023/04/22 07:30:58;;;;;;;20.40;18.60;;;;;;;24.70;30.04;100111.44;5019907;28;97384;-86
2023/04/22 07:33:24;;;;;;;21.10;19.23;;;;;;;25.10;29.96;100102.16;5047193;27;97227;-85
2023/04/22 07:35:49;;;;;;;20.67;18.73;;;;;;;25.36;29.23;100111.19;5013354;28;101648;-86
2023/04/22 07:38:15;;;;;;;22.17;20.13;;;;;;;25.53;29.52;100110.34;5019068;27;98504;-87
2023/04/22 07:40:40;;;;;;;20.77;18.92;;;;;;;25.77;29.63;100108.03;4994038;28;96816;-84
2023/04/22 07:43:06;;;;;;;21.95;19.85;;;;;;;26.02;28.95;100085.75;5011545;28;96950;-86
2023/04/22 07:45:32;;;;;;;22.67;20.40;;;;;;;26.55;28.58;100110.81;4995277;28;101446;-89
2023/04/22 07:47:58;;;;;;;22.70;20.08;;;;;;;26.71;28.34;100116.28;5015027;28;101376;-87
2023/04/22 07:50:23;;;;;;;22.25;20.25;;;;;;;27.04;27.56;100109.16;5042599;27;96775;-90
2023/04/22 07:52:49;;;;;;;21.10;19.00;;;;;;;27.39;27.78;100111.81;5013817;28;97225;-86
2023/04/22 07:55:14;;;;;;;21.02;19.13;;;;;;;27.42;27.04;100106.06;5013112;28;100144;-78
2023/04/22 07:57:40;;;;;;;20.45;18.65;;;;;;;27.62;27.20;100109.31;4995652;28;101298;-85
2023/04/22 08:00:06;;;;;;;21.20;19.10;;;;;;;27.88;26.80;100096.53;5032423;28;97332;-88
2023/04/22 08:02:37;;;;;;;20.80;19.02;;;;;;;28.04;26.67;100087.56;5013309;28;97217;-90
2023/04/22 08:05:03;;;;;;;20.73;18.77;;;;;;;28.16;26.40;100091.59;5014201;28;100663;-90
2023/04/22 08:07:28;;;;;;;19.17;17.60;;;;;;;28.46;26.19;100097.28;5031314;28;101295;-89
2023/04/22 08:09:55;;;;;;;20.77;18.58;;;;;;;28.95;25.75;100096.25;5018220;28;97205;-90
2023/04/22 08:12:21;;;;;;;20.85;18.98;;;;;;;28.93;25.26;100085.59;5011852;27;100419;-91
2023/04/22 08:14:47;;;;;;;20.67;18.77;;;;;;;29.07;25.06;100082.19;5048055;27;100176;-89
2023/04/22 08:17:12;;;;;;;22.58;20.50;;;;;;;28.98;25.45;100069.72;5032635;27;100968;-90
2023/04/22 08:19:38;;;;;;;21.88;19.60;;;;;;;29.45;25.02;100094.94;5015865;28;96953;-90
2023/04/22 08:22:03;;;;;;;20.27;18.65;;;;;;;29.40;24.76;100064.91;5016341;28;97343;-89
2023/04/22 08:24:29;;;;;;;19.88;18.15;;;;;;;29.71;24.25;100091.91;5031587;28;97552;-89
2023/04/22 08:26:55;;;;;;;20.05;18.10;;;;;;;29.69;23.70;100081.25;5015760;28;101147;-89
2023/04/22 08:29:21;;;;;;;21.45;19.55;;;;;;;29.59;23.58;100060.88;5021942;27;98144;-89
2023/04/22 08:31:46;;;;;;;21.00;19.05;;;;;;;30.11;23.65;100087.16;5045499;27;96709;-90
2023/04/22 08:34:12;;;;;;;20.42;18.70;;;;;;;30.21;23.38;100091.28;5015345;28;101633;-91
2023/04/22 08:36:39;;;;;;;21.05;19.08;;;;;;;30.41;23.03;100088.03;5017663;28;96764;-89
2023/04/22 08:39:04;;;;;;;19.42;17.73;;;;;;;30.62;22.67;100081.84;5017437;28;97060;-90
2023/04/22 08:41:33;;;;;;;20.00;17.98;;;;;;;30.92;22.50;100085.38;5015922;27;97971;-83
2023/04/22 08:44:00;;;;;;;19.90;17.97;;;;;;;30.52;22.52;100092.97;4996676;27;100323;-90
2023/04/22 08:46:27;;;;;;;18.80;17.30;;;;;;;30.54;22.38;100081.94;5034177;27;102136;-90
2023/04/22 08:48:53;;;;;;;19.60;17.92;;;;;;;30.43;22.34;100051.63;4998818;28;97372;-83
2023/04/22 08:51:19;;;;;;;18.98;17.40;;;;;;;30.58;22.71;100083.28;5013040;27;97248;-91
2023/04/22 08:53:44;;;;;;;19.27;17.77;;;;;;;30.88;22.64;100076.78;5006832;28;98049;-86
2023/04/22 08:56:13;;;;;;;19.27;17.77;;;;;;;31.36;22.12;100076.31;5027480;27;100636;-87
2023/04/22 08:58:42;;;;;;;19.48;17.80;;;;;;;31.34;21.68;100070.22;5012121;28;97272;-85
2023/04/22 09:01:08;;;;;;;19.60;18.10;;;;;;;30.57;22.90;100068.03;4989718;27;97989;-88
2023/04/22 09:03:39;;;;;;;18.88;17.40;;;;;;;30.64;22.34;100067.09;5016187;27;98570;-86
2023/04/22 09:06:05;;;;;;;17.15;15.73;;;;;;;30.70;21.24;100075.50;5010864;28;101968;-87
2023/04/22 09:08:31;;;;;;;16.83;15.43;;;;;;;30.72;21.46;100076.13;5011337;28;97390;-85
2023/04/22 09:10:58;;;;;;;17.35;16.05;;;;;;;31.57;20.26;100079.03;5014295;28;97299;-86
2023/04/22 09:13:24;;;;;;;16.35;14.85;;;;;;;31.95;20.50;100067.88;5027856;28;98859;-85
2023/04/22 09:15:50;;;;;;;17.42;16.13;;;;;;;32.24;20.11;100066.81;5007661;28;101488;-86
2023/04/22 09:18:18;;;;;;;17.17;15.55;;;;;;;32.21;19.83;100069.09;5019178;28;97267;-91
2023/04/22 09:20:43;;;;;;;16.83;15.52;;;;;;;32.14;20.23;100066.31;5005055;27;97884;-93
2023/04/22 09:23:11;;;;;;;16.08;14.95;;;;;;;32.24;19.17;100072.25;5011056;28;100455;-92
2023/04/22 09:25:37;;;;;;;16.42;15.23;;;;;;;32.10;19.46;100065.06;5030289;28;100402;-83
2023/04/22 09:28:02;;;;;;;16.52;15.30;;;;;;;31.01;19.89;100068.00;5012064;28;97064;-82
2023/04/22 09:30:33;;;;;;;16.83;15.48;;;;;;;29.91;21.13;100062.50;5029721;28;97053;-82
2023/04/22 09:33:04;;;;;;;16.35;15.15;;;;;;;31.16;20.88;100065.25;5028162;28;97667;-84
2023/04/22 09:35:32;;;;;;;16.77;15.40;;;;;;;31.11;20.38;100068.50;5013780;28;101595;-83
2023/04/22 09:37:59;;;;;;;16.42;15.13;;;;;;;30.80;20.86;100057.94;5023046;27;99314;-83
2023/04/22 09:40:25;;;;;;;16.20;14.82;;;;;;;31.64;20.65;100060.06;5040039;27;97213;-82
2023/04/22 09:42:53;;;;;;;15.75;14.43;;;;;;;31.21;20.88;100056.50;5003152;28;97568;-89
2023/04/22 09:45:25;;;;;;;15.93;14.68;;;;;;;30.77;20.23;100057.44;5002836;28;98006;-93
2023/04/22 09:47:51;;;;;;;15.57;14.38;;;;;;;30.67;19.90;100044.22;5015653;28;97034;-87
2023/04/22 09:50:20;;;;;;;15.23;13.98;;;;;;;30.49;20.49;100031.06;5009068;28;97164;-85
2023/04/22 09:52:59;;;;;;;15.27;14.18;;;;;;;29.90;20.52;100045.38;5036597;27;101569;-88
2023/04/22 09:55:26;;;;;;;13.95;12.95;;;;;;;29.65;19.87;100033.97;5026347;27;98451;-89
2023/04/22 09:57:53;;;;;;;14.05;13.05;;;;;;;29.29;19.67;100022.91;5010779;28;98996;-89
2023/04/22 10:00:20;;;;;;;12.98;12.05;;;;;;;28.57;19.32;100045.63;5030211;28;96921;-88
2023/04/22 10:02:46;;;;;;;13.35;12.55;;;;;;;27.44;20.27;100048.31;5029294;27;101489;-88
2023/04/22 10:05:11;;;;;;;13.27;12.27;;;;;;;27.24;20.96;100034.31;5012976;28;101282;-84
2023/04/22 10:07:38;;;;;;;15.18;13.85;;;;;;;27.20;21.41;100037.50;5034207;27;97114;-83
2023/04/22 10:10:07;;;;;;;15.93;14.27;;;;;;;26.70;22.70;100049.97;5011918;28;97011;-84
2023/04/22 10:12:34;;;;;;;15.93;14.60;;;;;;;26.92;22.63;100056.63;5008471;27;98141;-85
2023/04/22 10:15:00;;;;;;;15.32;14.15;;;;;;;26.40;22.77;100027.13;5033331;27;101621;-86
2023/04/22 10:17:29;;;;;;;14.35;13.25;;;;;;;26.38;22.64;100029.13;5012243;28;97117;-83
2023/04/22 10:19:55;;;;;;;14.43;13.43;;;;;;;25.52;23.21;100046.03;4995829;28;97261;-83
2023/04/22 10:22:21;;;;;;;14.50;13.50;;;;;;;25.59;22.76;100032.81;5027715;28;97514;-85
2023/04/22 10:24:46;;;;;;;15.13;13.82;;;;;;;25.03;22.47;100035.63;5028932;28;101107;-84
2023/04/22 10:27:12;;;;;;;14.98;13.60;;;;;;;24.99;22.83;100038.81;5030076;27;97004;-84
2023/04/22 10:29:40;;;;;;;14.65;13.55;;;;;;;24.71;22.89;100032.59;5005715;27;97042;-83
2023/04/22 10:32:08;;;;;;;13.93;13.02;;;;;;;24.69;23.18;100032.75;5011297;28;101474;-83
2023/04/22 10:34:36;;;;;;;13.88;12.88;;;;;;;24.73;23.40;100030.63;5012976;28;100065;-83
2023/04/22 10:37:12;;;;;;;14.02;13.02;;;;;;;24.65;23.55;100028.69;4996251;28;96740;-83
2023/04/22 10:39:41;;;;;;;14.90;13.77;;;;;;;23.93;23.79;100040.94;4996875;28;97309;-84
2023/04/22 10:42:09;;;;;;;14.02;13.05;;;;;;;23.68;23.74;99994.16;5012176;28;101649;-83
2023/04/22 10:45:04;;;;;;;13.90;12.80;;;;;;;23.48;24.26;100009.41;5012912;28;97424;-83
2023/04/22 10:47:31;;;;;;;14.25;13.35;;;;;;;23.75;24.14;100024.75;5003523;28;97640;-83
2023/04/22 10:50:20;;;;;;;14.75;13.65;;;;;;;23.18;24.09;100038.00;5013595;28;97246;-84
2023/04/22 10:52:48;;;;;;;13.32;12.43;;;;;;;23.30;24.08;100009.28;5030981;27;98106;-84
2023/04/22 10:55:14;;;;;;;13.43;12.30;;;;;;;23.53;24.68;100015.16;4996381;28;100754;-83
2023/04/22 10:57:41;;;;;;;14.68;13.30;;;;;;;23.39;24.65;100010.28;5012955;28;97230;-83
2023/04/22 11:00:30;;;;;;;14.98;13.60;;;;;;;23.35;25.22;100008.84;5030742;27;98264;-83
2023/04/22 11:03:09;;;;;;;13.75;12.75;;;;;;;23.47;25.48;100007.69;5013793;27;100826;-84
2023/04/22 11:05:35;;;;;;;14.40;13.32;;;;;;;23.23;25.37;100008.97;5007992;28;102583;-83
2023/04/22 11:08:05;;;;;;;14.65;13.52;;;;;;;22.69;25.26;100004.09;5031370;28;96941;-83